createdAt,value
2022-11-26T13:25:02.357Z,100467.91
2022-11-26T13:28:01.849Z,100488.03
2022-11-26T13:31:00.384Z,100482.53
2022-11-26T13:34:27.769Z,100466.63
2022-11-26T13:37:04.345Z,100458.22
2022-11-26T13:40:27.200Z,100445.00
2022-11-26T13:43:36.784Z,100424.09
2022-11-26T13:46:44.130Z,100437.06
2022-11-26T13:50:21.743Z,100429.03
2022-11-26T13:53:14.364Z,100428.94
2022-11-26T13:56:43.416Z,100432.09
2022-11-26T14:00:27.105Z,100438.91
2022-11-26T14:03:54.363Z,100438.94
2022-11-26T14:07:09.383Z,100426.91
2022-11-26T14:09:45.328Z,100428.06
2022-11-26T14:13:12.129Z,100440.88
2022-11-26T14:16:04.108Z,100422.78
2022-11-26T14:19:36.034Z,100415.94
2022-11-26T14:22:44.992Z,100423.88
2022-11-26T14:26:19.475Z,100439.91
2022-11-26T14:29:34.039Z,100431.88
2022-11-26T14:33:02.665Z,100447.88
2022-11-26T14:36:37.489Z,100454.63
2022-11-26T14:39:29.398Z,100458.25
2022-11-26T14:42:58.104Z,100460.72
2022-11-26T14:46:26.736Z,100459.31
2022-11-26T14:49:55.438Z,100469.38
2022-11-26T14:53:24.054Z,100461.78
2022-11-26T14:56:52.677Z,100480.16
2022-11-26T15:00:21.241Z,100487.34
2022-11-26T15:04:04.813Z,100494.16
2022-11-26T15:07:33.482Z,100502.88
2022-11-26T15:11:02.222Z,100509.28
2022-11-26T15:14:40.085Z,100511.31
2022-11-26T15:18:08.915Z,100501.66
2022-11-26T18:14:44.771Z,100539.19
2022-11-26T18:17:14.980Z,100544.28
2022-11-26T18:19:44.875Z,100531.88
2022-11-26T18:22:19.887Z,100535.13
2022-11-26T18:24:56.806Z,100537.50
2022-11-26T18:27:32.073Z,100534.25
2022-11-26T18:30:01.860Z,100534.25
2022-11-26T18:32:31.450Z,100522.66
2022-11-26T18:35:01.018Z,100517.84
2022-11-26T18:37:30.865Z,100524.22
2022-11-26T18:40:00.833Z,100528.66
2022-11-26T18:42:37.193Z,100531.44
2022-11-26T18:46:06.829Z,100551.09
2022-11-26T18:49:35.425Z,100554.97
2022-11-26T18:53:04.045Z,100557.34
2022-11-26T18:56:32.641Z,100538.00
2022-11-26T19:00:01.268Z,100528.78
2022-11-26T19:03:29.844Z,100544.44
2022-11-26T19:06:58.518Z,100546.00
2022-11-26T19:10:27.139Z,100532.41
2022-11-26T19:13:55.808Z,100529.97
2022-11-26T19:17:24.683Z,100522.00
2022-11-26T19:20:53.581Z,100521.44
2022-11-26T19:24:22.181Z,100527.16
2022-11-26T19:27:50.842Z,100537.44
2022-11-26T19:31:19.611Z,100536.63
2022-11-26T19:34:48.273Z,100536.88
2022-11-26T19:38:16.895Z,100536.06
2022-11-26T19:41:45.552Z,100520.09
2022-11-26T19:45:14.133Z,100514.94
2022-11-26T19:48:42.800Z,100513.69
2022-11-26T19:52:11.435Z,100502.47
2022-11-26T19:55:40.102Z,100501.72
2022-11-26T19:59:08.744Z,100491.31
2022-11-26T20:02:37.628Z,100503.28
2022-11-26T20:06:06.420Z,100516.94
2022-11-26T20:09:35.087Z,100504.09
2022-11-26T20:13:03.824Z,100512.50
2022-11-26T23:41:48.821Z,100551.72
2022-11-26T23:45:18.790Z,100552.38
2022-11-26T23:48:47.509Z,100547.75
2022-11-26T23:52:16.113Z,100549.88
2022-11-26T23:55:44.775Z,100543.66
2022-11-26T23:59:13.364Z,100550.56
